Time;durP1;ratioP1;P1;durP2;ratioP2;P2;SDS_P1;SDS_P2;PMS_P1;PMS_P2;Temp;Humidity;BMP_temperature;BMP_pressure;BME280_temperature;BME280_humidity;BME280_pressure;Samples;Min_cycle;Max_cycle;Signal;HPM_P1;HPM_P2
2021/01/14 00:01:19;;;;;;;0.60;0.60;;;7.60;99.90;;;;;;20524736;28;20235;-84
2021/01/14 00:11:22;;;;;;;0.70;0.63;;;7.50;99.90;;;;;;20527523;28;20597;-83
2021/01/14 00:21:26;;;;;;;0.50;0.40;;;7.60;99.90;;;;;;20540197;28;20223;-77
2021/01/14 00:31:28;;;;;;;0.97;0.77;;;7.50;99.90;;;;;;20542051;28;20207;-80
2021/01/14 00:41:38;;;;;;;1.30;1.20;;;7.30;99.90;;;;;;20521866;28;20585;-79
2021/01/14 00:51:41;;;;;;;1.07;0.30;;;7.40;99.90;;;;;;20522302;28;20220;-81
2021/01/14 01:01:44;;;;;;;3.50;0.50;;;7.30;99.90;;;;;;20523424;28;20239;-79
2021/01/14 01:11:47;;;;;;;1.97;1.33;;;7.10;99.90;;;;;;20599026;28;20763;-80
2021/01/14 01:21:51;;;;;;;3.50;1.27;;;6.80;99.90;;;;;;20616543;28;20219;-79
2021/01/14 01:31:54;;;;;;;1.50;0.73;;;6.30;99.90;;;;;;20610861;28;20616;-79
2021/01/14 01:41:58;;;;;;;1.33;1.07;;;6.30;99.90;;;;;;20520183;28;20290;-78
2021/01/14 01:52:03;;;;;;;0.80;0.80;;;6.30;99.90;;;;;;20536907;28;20840;-80
2021/01/14 02:02:25;;;;;;;1.27;1.10;;;6.40;99.90;;;;;;20539039;28;20228;-78
2021/01/14 02:12:36;;;;;;;3.00;0.60;;;6.50;99.90;;;;;;20506479;28;20203;-78
2021/01/14 02:22:43;;;;;;;0.77;0.77;;;6.40;99.90;;;;;;20537625;28;20374;-80
2021/01/14 02:32:47;;;;;;;1.07;1.07;;;6.20;99.90;;;;;;20603026;23;20248;-77
2021/01/14 02:42:50;;;;;;;1.50;1.40;;;6.20;99.90;;;;;;20535558;28;20251;-77
2021/01/14 02:52:58;;;;;;;0.20;0.17;;;6.00;99.90;;;;;;20518462;28;20819;-76
2021/01/14 03:03:01;;;;;;;0.77;0.77;;;6.00;99.90;;;;;;20536276;28;20224;-77
2021/01/14 03:13:05;;;;;;;1.50;1.37;;;6.30;99.90;;;;;;20535996;28;20199;-77
2021/01/14 03:23:10;;;;;;;0.30;0.30;;;6.20;99.90;;;;;;20533965;28;20697;-76
2021/01/14 03:33:15;;;;;;;4.10;0.90;;;6.10;99.90;;;;;;20534828;28;20228;-77
2021/01/14 03:43:17;;;;;;;0.33;0.33;;;6.10;99.90;;;;;;20534605;28;20279;-81
2021/01/14 03:53:21;;;;;;;2.23;1.30;;;6.20;99.90;;;;;;20533263;28;20525;-78
2021/01/14 04:03:24;;;;;;;0.43;0.43;;;6.20;99.90;;;;;;20571692;28;20287;-81
2021/01/14 04:13:27;;;;;;;0.20;0.20;;;6.10;99.90;;;;;;20548144;28;20244;-80
2021/01/14 04:23:30;;;;;;;4.13;1.20;;;6.10;99.90;;;;;;20558246;28;20258;-79
2021/01/14 04:33:34;;;;;;;1.30;1.07;;;5.90;99.90;;;;;;20575595;28;20250;-79
2021/01/14 04:43:37;;;;;;;0.63;0.63;;;5.90;99.90;;;;;;20568786;28;20262;-73
2021/01/14 04:53:42;;;;;;;0.20;0.10;;;5.80;99.90;;;;;;20547151;28;20658;-74
2021/01/14 05:03:46;;;;;;;1.27;1.17;;;5.60;99.90;;;;;;20544123;28;20224;-73
2021/01/14 05:13:50;;;;;;;0.50;0.50;;;5.60;99.90;;;;;;20542626;28;20200;-75
2021/01/14 05:24:12;;;;;;;0.40;0.40;;;5.60;99.90;;;;;;20541892;28;20239;-76
2021/01/14 05:34:18;;;;;;;0.83;0.83;;;5.60;99.90;;;;;;20541558;28;21138;-73
2021/01/14 05:44:35;;;;;;;0.27;0.23;;;5.70;99.90;;;;;;20521080;28;20655;-74
2021/01/14 05:54:42;;;;;;;0.57;0.57;;;5.60;99.90;;;;;;20561485;28;20318;-72
2021/01/14 06:04:45;;;;;;;0.60;0.60;;;5.60;99.90;;;;;;20618561;28;20230;-74
2021/01/14 06:14:49;;;;;;;2.67;0.57;;;5.50;99.90;;;;;;20601296;28;20195;-73
2021/01/14 06:24:58;;;;;;;2.13;1.87;;;5.50;99.90;;;;;;20616442;28;20618;-75
2021/01/14 06:35:03;;;;;;;0.40;0.40;;;5.40;99.90;;;;;;20614832;28;20219;-73
2021/01/14 06:45:08;;;;;;;0.87;0.80;;;5.20;99.90;;;;;;20618722;28;21039;-76
2021/01/14 06:55:15;;;;;;;1.07;1.07;;;5.10;99.90;;;;;;20613150;28;20200;-73
2021/01/14 07:05:31;;;;;;;1.33;1.20;;;5.10;99.90;;;;;;20609209;28;20695;-74
2021/01/14 07:15:44;;;;;;;1.47;0.73;;;4.80;99.90;;;;;;20614270;28;20199;-75
2021/01/14 07:25:47;;;;;;;0.77;0.60;;;4.80;99.90;;;;;;20618759;28;20594;-74
2021/01/14 07:35:51;;;;;;;0.67;0.67;;;4.80;99.90;;;;;;20606559;28;20676;-72
2021/01/14 07:46:13;;;;;;;0.60;0.50;;;4.90;99.90;;;;;;20615076;28;20222;-74
2021/01/14 07:56:24;;;;;;;0.43;0.43;;;5.10;99.90;;;;;;20610636;28;20251;-74
2021/01/14 08:06:29;;;;;;;1.10;1.03;;;5.30;99.90;;;;;;20628983;28;20306;-74
2021/01/14 08:16:35;;;;;;;3.67;0.70;;;5.50;99.90;;;;;;20627036;28;20235;-71
2021/01/14 08:26:56;;;;;;;2.40;1.37;;;5.80;99.90;;;;;;20625148;28;20239;-74
2021/01/14 08:37:00;;;;;;;1.37;1.27;;;6.00;99.90;;;;;;20624584;28;20652;-71
2021/01/14 08:47:03;;;;;;;1.00;0.80;;;6.20;99.90;;;;;;20580527;28;20656;-77
2021/01/14 08:57:07;;;;;;;1.13;0.80;;;6.40;99.90;;;;;;20618462;28;20204;-77
2021/01/14 09:07:10;;;;;;;0.63;0.53;;;6.70;99.90;;;;;;20538681;28;20224;-73
2021/01/14 09:17:16;;;;;;;1.67;1.57;;;6.90;99.90;;;;;;20538439;28;20496;-77
2021/01/14 09:27:25;;;;;;;3.03;1.80;;;6.80;99.90;;;;;;20540424;28;20731;-80
2021/01/14 09:37:29;;;;;;;5.20;1.23;;;7.10;99.90;;;;;;20572664;28;20219;-79
2021/01/14 09:47:32;;;;;;;1.23;1.07;;;7.40;99.90;;;;;;20616565;28;20230;-75
2021/01/14 09:57:38;;;;;;;0.93;0.93;;;7.40;99.90;;;;;;20577027;28;20227;-77
2021/01/14 10:07:46;;;;;;;1.60;1.50;;;7.70;99.90;;;;;;20596061;28;20204;-76
2021/01/14 10:17:49;;;;;;;3.90;1.57;;;8.10;99.90;;;;;;20610963;28;20231;-80
2021/01/14 10:28:00;;;;;;;1.83;1.73;;;8.80;99.90;;;;;;20612321;28;20285;-79
2021/01/14 10:38:10;;;;;;;2.93;1.27;;;9.40;99.90;;;;;;20581062;28;20660;-74
2021/01/14 10:48:14;;;;;;;9.83;3.13;;;9.20;99.90;;;;;;20611407;28;20215;-77
2021/01/14 10:58:22;;;;;;;3.47;1.97;;;9.40;99.90;;;;;;20612654;28;20235;-77
2021/01/14 11:08:26;;;;;;;4.37;1.97;;;9.90;99.90;;;;;;20609786;28;20656;-78
2021/01/14 11:18:31;;;;;;;4.10;1.17;;;10.40;99.90;;;;;;20614674;28;20615;-75
2021/01/14 11:28:38;;;;;;;4.00;1.40;;;10.20;99.90;;;;;;20625649;28;20306;-74
2021/01/14 11:38:43;;;;;;;8.93;1.30;;;11.50;99.90;;;;;;20625515;28;20223;-76
2021/01/14 11:48:46;;;;;;;2.37;1.97;;;11.60;99.90;;;;;;20623597;28;20286;-70
2021/01/14 11:58:50;;;;;;;4.80;2.87;;;11.70;99.90;;;;;;20626742;28;20338;-76
2021/01/14 12:08:52;;;;;;;3.60;1.30;;;12.50;99.90;;;;;;20625449;28;20679;-77
2021/01/14 12:18:56;;;;;;;2.77;2.00;;;13.20;99.90;;;;;;20607471;28;20223;-78
2021/01/14 12:28:59;;;;;;;2.63;1.13;;;13.50;99.90;;;;;;20622912;28;20235;-77
2021/01/14 12:39:03;;;;;;;3.80;2.10;;;14.10;99.90;;;;;;20574285;28;20290;-77
2021/01/14 12:49:07;;;;;;;2.50;1.87;;;14.70;99.90;;;;;;20541638;28;20200;-80
2021/01/14 12:59:11;;;;;;;5.10;1.93;;;15.10;99.90;;;;;;20542961;28;20230;-79
2021/01/14 13:09:14;;;;;;;5.50;1.47;;;15.60;99.90;;;;;;20554925;28;20188;-79
2021/01/14 13:19:19;;;;;;;2.17;1.87;;;16.00;99.90;;;;;;20544178;28;20291;-77
2021/01/14 13:29:21;;;;;;;2.03;1.47;;;16.50;99.90;;;;;;20542150;28;20316;-80
2021/01/14 13:39:26;;;;;;;2.83;1.77;;;16.60;99.90;;;;;;20571758;28;20218;-79
2021/01/14 13:49:28;;;;;;;1.97;1.63;;;16.80;99.90;;;;;;20597780;28;20251;-77
2021/01/14 13:59:33;;;;;;;5.67;1.77;;;17.00;99.90;;;;;;20618560;28;20238;-78
2021/01/14 14:09:36;;;;;;;4.57;1.10;;;16.90;99.90;;;;;;20612838;28;20254;-77
2021/01/14 14:19:39;;;;;;;1.63;1.40;;;16.60;99.90;;;;;;20610525;28;20329;-79
2021/01/14 14:29:42;;;;;;;1.57;1.30;;;16.70;99.90;;;;;;20581173;28;20231;-76
2021/01/14 14:39:46;;;;;;;0.77;0.67;;;15.90;99.90;;;;;;20525437;28;20227;-78
2021/01/14 14:49:49;;;;;;;2.73;0.90;;;15.80;99.90;;;;;;20560235;28;20210;-75
2021/01/14 14:59:53;;;;;;;1.60;1.30;;;16.10;99.90;;;;;;20609212;28;20250;-76
2021/01/14 15:09:55;;;;;;;1.77;1.03;;;15.60;99.90;;;;;;20610545;28;20724;-78
2021/01/14 15:20:03;;;;;;;2.73;0.70;;;15.30;99.90;;;;;;20608162;28;20544;-77
2021/01/14 15:30:08;;;;;;;0.87;0.70;;;15.20;99.90;;;;;;20606927;28;20704;-75
2021/01/14 15:40:14;;;;;;;2.00;1.03;;;13.60;99.90;;;;;;20588850;28;20243;-76
2021/01/14 15:50:17;;;;;;;0.53;0.53;;;12.40;99.90;;;;;;20592385;28;20210;-76
2021/01/14 16:00:21;;;;;;;1.13;0.67;;;11.90;99.90;;;;;;20605880;28;20227;-75
2021/01/14 16:10:24;;;;;;;0.83;0.63;;;10.80;99.90;;;;;;20614333;28;20281;-76
2021/01/14 16:20:27;;;;;;;1.03;1.03;;;10.20;99.90;;;;;;20620507;28;20223;-77
2021/01/14 16:30:30;;;;;;;2.57;1.43;;;9.60;99.90;;;;;;20595058;28;20227;-72
2021/01/14 16:40:34;;;;;;;0.50;0.50;;;9.20;99.90;;;;;;20615394;28;20219;-75
2021/01/14 16:50:37;;;;;;;2.90;0.87;;;8.80;99.90;;;;;;20615493;28;20195;-76
2021/01/14 17:00:40;;;;;;;1.23;0.97;;;8.30;99.90;;;;;;20612942;28;20681;-73
2021/01/14 17:10:43;;;;;;;1.13;0.97;;;8.00;99.90;;;;;;20614278;28;20356;-73
2021/01/14 17:20:47;;;;;;;2.50;0.77;;;7.60;99.90;;;;;;20596366;28;20227;-78
2021/01/14 17:30:51;;;;;;;2.57;0.90;;;7.40;99.90;;;;;;20605750;28;20273;-79
2021/01/14 17:40:54;;;;;;;0.87;0.87;;;7.30;99.90;;;;;;20605073;28;20305;-78
2021/01/14 17:50:57;;;;;;;0.97;0.60;;;7.20;99.90;;;;;;20613725;28;20262;-78
2021/01/14 18:01:01;;;;;;;1.60;1.50;;;7.00;99.90;;;;;;20593247;28;20245;-79
2021/01/14 18:11:05;;;;;;;0.87;0.77;;;6.80;99.90;;;;;;20611589;28;20203;-76
2021/01/14 18:21:08;;;;;;;0.70;0.70;;;6.60;99.90;;;;;;20576381;28;20293;-75
2021/01/14 18:31:12;;;;;;;1.37;0.97;;;6.40;99.90;;;;;;20604523;28;20235;-75
2021/01/14 18:41:31;;;;;;;1.13;1.10;;;6.50;99.90;;;;;;20607694;28;20549;-73
2021/01/14 18:51:36;;;;;;;1.73;1.07;;;6.50;99.90;;;;;;20608476;28;20257;-78
2021/01/14 19:01:44;;;;;;;1.10;1.00;;;6.50;99.90;;;;;;20590560;28;20311;-78
2021/01/14 19:11:48;;;;;;;1.87;0.77;;;6.50;99.90;;;;;;20610364;28;20206;-78
2021/01/14 19:21:55;;;;;;;1.77;1.67;;;6.60;99.90;;;;;;20610337;28;20239;-78
2021/01/14 19:31:58;;;;;;;6.87;1.83;;;6.70;99.90;;;;;;20600377;28;20227;-78
2021/01/14 19:42:02;;;;;;;1.03;1.03;;;6.70;99.90;;;;;;20611459;28;20342;-79
2021/01/14 19:52:05;;;;;;;1.97;0.97;;;6.50;99.90;;;;;;20605266;28;20196;-78
2021/01/14 20:02:09;;;;;;;2.03;1.53;;;6.40;99.90;;;;;;20596466;28;20232;-78
2021/01/14 20:12:13;;;;;;;3.33;1.00;;;6.60;99.90;;;;;;20613547;28;20192;-77
2021/01/14 20:22:16;;;;;;;0.70;0.70;;;6.50;99.90;;;;;;20621474;28;20595;-77
2021/01/14 20:32:19;;;;;;;2.53;2.33;;;6.50;99.90;;;;;;20613724;28;20220;-78
2021/01/14 20:42:24;;;;;;;1.20;1.10;;;6.70;99.90;;;;;;20570637;28;20792;-77
2021/01/14 20:52:34;;;;;;;1.90;1.17;;;6.60;99.90;;;;;;20571619;28;20274;-75
2021/01/14 21:02:39;;;;;;;1.67;1.33;;;6.70;99.90;;;;;;20594990;28;20656;-79
2021/01/14 21:12:41;;;;;;;0.40;0.40;;;6.60;99.90;;;;;;20618885;28;20211;-78
2021/01/14 21:22:45;;;;;;;2.10;1.50;;;6.50;99.90;;;;;;20537207;28;20236;-77
2021/01/14 21:32:48;;;;;;;1.53;0.93;;;6.60;99.90;;;;;;20551516;28;20702;-77
2021/01/14 21:42:54;;;;;;;1.17;1.13;;;6.60;99.90;;;;;;20616619;28;20254;-74
2021/01/14 21:52:57;;;;;;;0.60;0.60;;;6.70;99.90;;;;;;20597255;28;20575;-77
2021/01/14 22:03:01;;;;;;;2.37;2.17;;;6.70;99.90;;;;;;20596959;28;20593;-75
2021/01/14 22:13:04;;;;;;;0.60;0.50;;;6.50;99.90;;;;;;20612320;28;20732;-76
2021/01/14 22:23:08;;;;;;;0.27;0.27;;;6.80;99.90;;;;;;20594863;28;20230;-75
2021/01/14 22:33:11;;;;;;;1.87;1.73;;;6.80;99.90;;;;;;20610640;28;20506;-75
2021/01/14 22:43:14;;;;;;;0.83;0.83;;;6.70;99.90;;;;;;20611715;28;20215;-73
2021/01/14 22:53:17;;;;;;;0.63;0.63;;;6.40;99.90;;;;;;20558012;28;20530;-75
2021/01/14 23:03:23;;;;;;;1.67;0.77;;;6.30;99.90;;;;;;20531040;28;20220;-75
2021/01/14 23:13:26;;;;;;;0.33;0.33;;;6.40;99.90;;;;;;20530025;28;20577;-76
2021/01/14 23:23:30;;;;;;;0.80;0.77;;;6.20;99.90;;;;;;20543728;28;20717;-76
2021/01/14 23:33:33;;;;;;;0.47;0.33;;;5.80;99.90;;;;;;20567237;28;20564;-76
2021/01/14 23:43:36;;;;;;;0.57;0.57;;;5.60;99.90;;;;;;20627128;28;20255;-76
2021/01/14 23:53:39;;;;;;;1.17;0.80;;;5.60;99.90;;;;;;20627216;28;20210;-75
